sensor_id;sensor_type;location;lat;lon;timestamp;temperature;humidity
44435;DHT22;30138;20.964;105.830;2024-01-30T00:03:33;15.40;99.90
44435;DHT22;30138;20.964;105.830;2024-01-30T00:08:39;15.50;99.90
44435;DHT22;30138;20.964;105.830;2024-01-30T00:13:51;15.40;99.90
44435;DHT22;30138;20.964;105.830;2024-01-30T00:18:58;15.40;99.90
44435;DHT22;30138;20.964;105.830;2024-01-30T00:24:05;15.50;99.90
44435;DHT22;30138;20.964;105.830;2024-01-30T00:29:14;15.40;99.90
44435;DHT22;30138;20.964;105.830;2024-01-30T00:34:22;15.40;99.90
44435;DHT22;30138;20.964;105.830;2024-01-30T00:39:30;15.50;99.90
44435;DHT22;30138;20.964;105.830;2024-01-30T00:44:38;15.50;99.90
44435;DHT22;30138;20.964;105.830;2024-01-30T00:49:44;15.50;99.90
44435;DHT22;30138;20.964;105.830;2024-01-30T00:54:52;15.50;99.90
44435;DHT22;30138;20.964;105.830;2024-01-30T01:00:00;15.50;99.90
44435;DHT22;30138;20.964;105.830;2024-01-30T01:05:09;15.50;99.90
44435;DHT22;30138;20.964;105.830;2024-01-30T01:10:16;15.50;99.90
44435;DHT22;30138;20.964;105.830;2024-01-30T01:15:25;15.50;99.90
44435;DHT22;30138;20.964;105.830;2024-01-30T01:20:32;15.50;99.90
44435;DHT22;30138;20.964;105.830;2024-01-30T01:25:38;15.50;99.90
44435;DHT22;30138;20.964;105.830;2024-01-30T01:30:47;15.50;99.90
44435;DHT22;30138;20.964;105.830;2024-01-30T01:35:54;15.50;99.90
44435;DHT22;30138;20.964;105.830;2024-01-30T01:41:01;15.50;99.90
44435;DHT22;30138;20.964;105.830;2024-01-30T01:46:09;15.50;99.90
44435;DHT22;30138;20.964;105.830;2024-01-30T01:51:16;15.50;99.90
44435;DHT22;30138;20.964;105.830;2024-01-30T01:56:23;15.50;99.90
44435;DHT22;30138;20.964;105.830;2024-01-30T02:01:34;15.50;99.90
44435;DHT22;30138;20.964;105.830;2024-01-30T02:06:44;15.50;99.90
44435;DHT22;30138;20.964;105.830;2024-01-30T02:11:53;15.50;99.90
44435;DHT22;30138;20.964;105.830;2024-01-30T02:17:02;15.50;99.90
44435;DHT22;30138;20.964;105.830;2024-01-30T02:22:11;15.50;99.90
44435;DHT22;30138;20.964;105.830;2024-01-30T02:27:17;15.50;99.90
44435;DHT22;30138;20.964;105.830;2024-01-30T02:32:25;15.50;99.90
44435;DHT22;30138;20.964;105.830;2024-01-30T02:37:34;15.50;99.90
44435;DHT22;30138;20.964;105.830;2024-01-30T02:42:40;15.50;99.90
44435;DHT22;30138;20.964;105.830;2024-01-30T02:47:47;15.50;99.90
44435;DHT22;30138;20.964;105.830;2024-01-30T02:52:56;15.50;99.90
44435;DHT22;30138;20.964;105.830;2024-01-30T02:58:03;15.50;99.90
44435;DHT22;30138;20.964;105.830;2024-01-30T03:03:10;15.50;99.90
44435;DHT22;30138;20.964;105.830;2024-01-30T03:08:19;15.60;99.90
44435;DHT22;30138;20.964;105.830;2024-01-30T03:13:26;15.50;99.90
44435;DHT22;30138;20.964;105.830;2024-01-30T03:18:34;15.60;99.90
44435;DHT22;30138;20.964;105.830;2024-01-30T03:23:43;15.60;99.90
44435;DHT22;30138;20.964;105.830;2024-01-30T03:28:50;15.60;99.90
44435;DHT22;30138;20.964;105.830;2024-01-30T03:33:59;15.60;99.90
44435;DHT22;30138;20.964;105.830;2024-01-30T03:39:07;15.60;99.90
44435;DHT22;30138;20.964;105.830;2024-01-30T03:44:14;15.60;99.90
44435;DHT22;30138;20.964;105.830;2024-01-30T03:49:21;15.60;99.90
44435;DHT22;30138;20.964;105.830;2024-01-30T03:54:29;15.60;99.90
44435;DHT22;30138;20.964;105.830;2024-01-30T03:59:36;15.60;99.90
44435;DHT22;30138;20.964;105.830;2024-01-30T04:04:43;15.60;99.90
44435;DHT22;30138;20.964;105.830;2024-01-30T04:09:51;15.60;99.90
44435;DHT22;30138;20.964;105.830;2024-01-30T04:14:58;15.60;99.90
44435;DHT22;30138;20.964;105.830;2024-01-30T04:20:06;15.60;99.90
44435;DHT22;30138;20.964;105.830;2024-01-30T04:25:15;15.60;99.90
44435;DHT22;30138;20.964;105.830;2024-01-30T04:30:21;15.60;99.90
44435;DHT22;30138;20.964;105.830;2024-01-30T04:35:28;15.70;99.90
44435;DHT22;30138;20.964;105.830;2024-01-30T04:40:36;15.70;99.90
44435;DHT22;30138;20.964;105.830;2024-01-30T04:45:42;15.70;99.90
44435;DHT22;30138;20.964;105.830;2024-01-30T04:50:49;15.70;99.90
44435;DHT22;30138;20.964;105.830;2024-01-30T04:55:57;15.70;99.90
44435;DHT22;30138;20.964;105.830;2024-01-30T05:01:04;15.70;99.90
44435;DHT22;30138;20.964;105.830;2024-01-30T05:06:10;15.70;99.90
44435;DHT22;30138;20.964;105.830;2024-01-30T05:11:19;15.70;99.90
44435;DHT22;30138;20.964;105.830;2024-01-30T05:16:25;15.70;99.90
44435;DHT22;30138;20.964;105.830;2024-01-30T05:21:32;15.80;99.90
44435;DHT22;30138;20.964;105.830;2024-01-30T05:26:41;15.80;99.90
44435;DHT22;30138;20.964;105.830;2024-01-30T05:31:47;15.80;99.90
44435;DHT22;30138;20.964;105.830;2024-01-30T05:36:54;15.80;99.90
44435;DHT22;30138;20.964;105.830;2024-01-30T05:42:05;15.80;99.90
44435;DHT22;30138;20.964;105.830;2024-01-30T05:47:12;15.80;99.90
44435;DHT22;30138;20.964;105.830;2024-01-30T05:52:18;15.80;99.90
44435;DHT22;30138;20.964;105.830;2024-01-30T05:57:27;15.80;99.90
44435;DHT22;30138;20.964;105.830;2024-01-30T06:02:33;15.90;99.90
44435;DHT22;30138;20.964;105.830;2024-01-30T06:07:40;15.90;99.90
44435;DHT22;30138;20.964;105.830;2024-01-30T06:12:48;15.90;99.90
44435;DHT22;30138;20.964;105.830;2024-01-30T06:17:55;15.90;99.90
44435;DHT22;30138;20.964;105.830;2024-01-30T06:23:01;15.90;99.90
44435;DHT22;30138;20.964;105.830;2024-01-30T06:28:11;15.90;99.90
44435;DHT22;30138;20.964;105.830;2024-01-30T06:33:18;15.90;99.90
44435;DHT22;30138;20.964;105.830;2024-01-30T06:38:25;15.90;99.90
44435;DHT22;30138;20.964;105.830;2024-01-30T06:43:36;15.90;99.90
44435;DHT22;30138;20.964;105.830;2024-01-30T06:48:42;15.90;99.90
44435;DHT22;30138;20.964;105.830;2024-01-30T06:53:50;15.90;99.90
44435;DHT22;30138;20.964;105.830;2024-01-30T06:58:59;15.90;99.90
44435;DHT22;30138;20.964;105.830;2024-01-30T07:04:06;16.00;99.90
44435;DHT22;30138;20.964;105.830;2024-01-30T07:09:13;16.00;99.90
44435;DHT22;30138;20.964;105.830;2024-01-30T07:14:22;16.00;99.90
44435;DHT22;30138;20.964;105.830;2024-01-30T07:19:29;16.00;99.90
44435;DHT22;30138;20.964;105.830;2024-01-30T07:24:35;16.00;99.90
44435;DHT22;30138;20.964;105.830;2024-01-30T07:29:43;16.00;99.90
44435;DHT22;30138;20.964;105.830;2024-01-30T07:34:51;16.00;99.90
44435;DHT22;30138;20.964;105.830;2024-01-30T07:39:58;16.00;99.90
44435;DHT22;30138;20.964;105.830;2024-01-30T07:45:08;16.00;99.90
44435;DHT22;30138;20.964;105.830;2024-01-30T07:50:15;16.00;99.90
44435;DHT22;30138;20.964;105.830;2024-01-30T07:55:21;16.00;99.90
44435;DHT22;30138;20.964;105.830;2024-01-30T08:00:33;16.10;99.90
44435;DHT22;30138;20.964;105.830;2024-01-30T08:05:40;16.10;99.90
44435;DHT22;30138;20.964;105.830;2024-01-30T08:10:46;16.00;99.90
44435;DHT22;30138;20.964;105.830;2024-01-30T08:15:55;16.10;99.90
44435;DHT22;30138;20.964;105.830;2024-01-30T08:21:02;16.10;99.90
44435;DHT22;30138;20.964;105.830;2024-01-30T08:26:09;16.10;99.90
44435;DHT22;30138;20.964;105.830;2024-01-30T08:31:19;16.10;99.90
44435;DHT22;30138;20.964;105.830;2024-01-30T08:36:26;16.10;99.90
44435;DHT22;30138;20.964;105.830;2024-01-30T08:41:32;16.10;99.90
44435;DHT22;30138;20.964;105.830;2024-01-30T08:46:41;16.10;99.90
44435;DHT22;30138;20.964;105.830;2024-01-30T08:51:48;16.10;99.90
44435;DHT22;30138;20.964;105.830;2024-01-30T08:56:55;16.20;99.90
44435;DHT22;30138;20.964;105.830;2024-01-30T09:02:04;16.10;99.90
44435;DHT22;30138;20.964;105.830;2024-01-30T09:07:12;16.20;99.90
44435;DHT22;30138;20.964;105.830;2024-01-30T09:12:19;16.20;99.90
44435;DHT22;30138;20.964;105.830;2024-01-30T09:17:27;16.20;99.90
44435;DHT22;30138;20.964;105.830;2024-01-30T09:22:34;16.20;99.90
44435;DHT22;30138;20.964;105.830;2024-01-30T09:27:41;16.20;99.90
44435;DHT22;30138;20.964;105.830;2024-01-30T09:32:49;16.20;99.90
44435;DHT22;30138;20.964;105.830;2024-01-30T09:37:56;16.20;99.90
44435;DHT22;30138;20.964;105.830;2024-01-30T09:43:03;16.20;99.90
44435;DHT22;30138;20.964;105.830;2024-01-30T09:48:11;16.20;99.90
44435;DHT22;30138;20.964;105.830;2024-01-30T09:53:19;16.20;99.90
44435;DHT22;30138;20.964;105.830;2024-01-30T09:58:26;16.20;99.90
44435;DHT22;30138;20.964;105.830;2024-01-30T10:03:36;16.20;99.90
44435;DHT22;30138;20.964;105.830;2024-01-30T10:08:44;16.20;99.90
44435;DHT22;30138;20.964;105.830;2024-01-30T10:13:52;16.20;99.90
44435;DHT22;30138;20.964;105.830;2024-01-30T10:19:03;16.30;99.90
44435;DHT22;30138;20.964;105.830;2024-01-30T10:24:11;16.30;99.90
44435;DHT22;30138;20.964;105.830;2024-01-30T10:29:18;16.30;99.90
44435;DHT22;30138;20.964;105.830;2024-01-30T10:34:28;16.30;99.90
44435;DHT22;30138;20.964;105.830;2024-01-30T10:39:38;16.30;99.90
44435;DHT22;30138;20.964;105.830;2024-01-30T10:44:52;16.30;99.90
44435;DHT22;30138;20.964;105.830;2024-01-30T10:50:04;16.30;99.90
44435;DHT22;30138;20.964;105.830;2024-01-30T10:55:13;16.30;99.90
44435;DHT22;30138;20.964;105.830;2024-01-30T11:00:20;16.30;99.90
44435;DHT22;30138;20.964;105.830;2024-01-30T11:05:29;16.30;99.90
44435;DHT22;30138;20.964;105.830;2024-01-30T11:10:46;16.30;99.90
44435;DHT22;30138;20.964;105.830;2024-01-30T11:15:53;16.30;99.90
44435;DHT22;30138;20.964;105.830;2024-01-30T11:21:04;16.30;99.90
44435;DHT22;30138;20.964;105.830;2024-01-30T11:26:11;16.30;99.90
44435;DHT22;30138;20.964;105.830;2024-01-30T11:31:20;16.30;99.90
44435;DHT22;30138;20.964;105.830;2024-01-30T11:36:28;16.30;99.90
44435;DHT22;30138;20.964;105.830;2024-01-30T11:41:35;16.30;99.90
44435;DHT22;30138;20.964;105.830;2024-01-30T11:46:43;16.30;99.90
44435;DHT22;30138;20.964;105.830;2024-01-30T11:51:53;16.30;99.90
44435;DHT22;30138;20.964;105.830;2024-01-30T11:56:59;16.30;99.90
44435;DHT22;30138;20.964;105.830;2024-01-30T12:02:06;16.30;99.90
44435;DHT22;30138;20.964;105.830;2024-01-30T12:07:15;16.30;99.90
44435;DHT22;30138;20.964;105.830;2024-01-30T12:12:23;16.40;99.90
44435;DHT22;30138;20.964;105.830;2024-01-30T12:17:31;16.40;99.90
44435;DHT22;30138;20.964;105.830;2024-01-30T12:22:51;16.30;99.90
44435;DHT22;30138;20.964;105.830;2024-01-30T12:27:58;16.40;99.90
44435;DHT22;30138;20.964;105.830;2024-01-30T12:33:05;16.30;99.90
44435;DHT22;30138;20.964;105.830;2024-01-30T12:38:14;16.30;99.90
44435;DHT22;30138;20.964;105.830;2024-01-30T12:43:21;16.40;99.90
44435;DHT22;30138;20.964;105.830;2024-01-30T12:48:28;16.40;99.90
44435;DHT22;30138;20.964;105.830;2024-01-30T12:53:37;16.30;99.90
44435;DHT22;30138;20.964;105.830;2024-01-30T12:58:43;16.40;99.90
44435;DHT22;30138;20.964;105.830;2024-01-30T13:03:49;16.40;99.90
44435;DHT22;30138;20.964;105.830;2024-01-30T13:08:58;16.40;99.90
44435;DHT22;30138;20.964;105.830;2024-01-30T13:14:05;16.40;99.90
44435;DHT22;30138;20.964;105.830;2024-01-30T13:19:11;16.40;99.90
44435;DHT22;30138;20.964;105.830;2024-01-30T13:24:21;16.40;99.90
44435;DHT22;30138;20.964;105.830;2024-01-30T13:29:28;16.40;99.90
44435;DHT22;30138;20.964;105.830;2024-01-30T13:34:34;16.40;99.90
44435;DHT22;30138;20.964;105.830;2024-01-30T13:39:45;16.40;99.90
44435;DHT22;30138;20.964;105.830;2024-01-30T13:44:53;16.40;99.90
44435;DHT22;30138;20.964;105.830;2024-01-30T13:50:00;16.40;99.90
44435;DHT22;30138;20.964;105.830;2024-01-30T13:55:08;16.40;99.90
44435;DHT22;30138;20.964;105.830;2024-01-30T14:00:15;16.40;99.90
44435;DHT22;30138;20.964;105.830;2024-01-30T14:05:21;16.40;99.90
44435;DHT22;30138;20.964;105.830;2024-01-30T14:10:29;16.50;99.90
44435;DHT22;30138;20.964;105.830;2024-01-30T14:15:37;16.40;99.90
44435;DHT22;30138;20.964;105.830;2024-01-30T14:20:44;16.40;99.90
44435;DHT22;30138;20.964;105.830;2024-01-30T14:25:54;16.40;99.90
44435;DHT22;30138;20.964;105.830;2024-01-30T14:31:01;16.40;99.90
44435;DHT22;30138;20.964;105.830;2024-01-30T14:36:08;16.40;99.90
44435;DHT22;30138;20.964;105.830;2024-01-30T14:41:17;16.40;99.90
44435;DHT22;30138;20.964;105.830;2024-01-30T14:46:24;16.40;99.90
44435;DHT22;30138;20.964;105.830;2024-01-30T14:51:31;16.40;99.90
44435;DHT22;30138;20.964;105.830;2024-01-30T14:56:40;16.40;99.90
44435;DHT22;30138;20.964;105.830;2024-01-30T15:01:48;16.40;99.90
44435;DHT22;30138;20.964;105.830;2024-01-30T15:06:55;16.40;99.90
44435;DHT22;30138;20.964;105.830;2024-01-30T15:12:04;16.40;99.90
44435;DHT22;30138;20.964;105.830;2024-01-30T15:17:11;16.40;99.90
44435;DHT22;30138;20.964;105.830;2024-01-30T15:22:18;16.40;99.90
44435;DHT22;30138;20.964;105.830;2024-01-30T15:27:28;16.40;99.90
44435;DHT22;30138;20.964;105.830;2024-01-30T15:32:35;16.40;99.90
44435;DHT22;30138;20.964;105.830;2024-01-30T15:37:42;16.40;99.90
44435;DHT22;30138;20.964;105.830;2024-01-30T15:42:52;16.40;99.90
44435;DHT22;30138;20.964;105.830;2024-01-30T15:47:58;16.40;99.90
44435;DHT22;30138;20.964;105.830;2024-01-30T15:53:05;16.40;99.90
44435;DHT22;30138;20.964;105.830;2024-01-30T15:58:15;16.50;99.90
44435;DHT22;30138;20.964;105.830;2024-01-30T16:03:23;16.50;99.90
44435;DHT22;30138;20.964;105.830;2024-01-30T16:08:30;16.50;99.90
44435;DHT22;30138;20.964;105.830;2024-01-30T16:13:38;16.50;99.90
44435;DHT22;30138;20.964;105.830;2024-01-30T16:18:46;16.50;99.90
44435;DHT22;30138;20.964;105.830;2024-01-30T16:23:52;16.50;99.90
44435;DHT22;30138;20.964;105.830;2024-01-30T16:29:01;16.50;99.90
44435;DHT22;30138;20.964;105.830;2024-01-30T16:34:09;16.50;99.90
44435;DHT22;30138;20.964;105.830;2024-01-30T16:39:16;16.50;99.90
44435;DHT22;30138;20.964;105.830;2024-01-30T16:44:26;16.50;99.90
44435;DHT22;30138;20.964;105.830;2024-01-30T16:49:33;16.50;99.90
44435;DHT22;30138;20.964;105.830;2024-01-30T16:54:41;16.50;99.90
44435;DHT22;30138;20.964;105.830;2024-01-30T16:59:51;16.50;99.90
44435;DHT22;30138;20.964;105.830;2024-01-30T17:04:58;16.50;99.90
44435;DHT22;30138;20.964;105.830;2024-01-30T17:10:05;16.50;99.90
44435;DHT22;30138;20.964;105.830;2024-01-30T17:15:14;16.50;99.90
44435;DHT22;30138;20.964;105.830;2024-01-30T17:20:21;16.50;99.90
44435;DHT22;30138;20.964;105.830;2024-01-30T17:25:29;16.50;99.90
44435;DHT22;30138;20.964;105.830;2024-01-30T17:30:39;16.50;99.90
44435;DHT22;30138;20.964;105.830;2024-01-30T17:35:46;16.50;99.90
44435;DHT22;30138;20.964;105.830;2024-01-30T17:40:54;16.50;99.90
44435;DHT22;30138;20.964;105.830;2024-01-30T17:46:03;16.50;99.90
44435;DHT22;30138;20.964;105.830;2024-01-30T17:51:11;16.50;99.90
44435;DHT22;30138;20.964;105.830;2024-01-30T17:56:18;16.50;99.90
44435;DHT22;30138;20.964;105.830;2024-01-30T18:01:27;16.50;99.90
44435;DHT22;30138;20.964;105.830;2024-01-30T18:06:34;16.50;99.90
44435;DHT22;30138;20.964;105.830;2024-01-30T18:11:41;16.50;99.90
44435;DHT22;30138;20.964;105.830;2024-01-30T18:16:49;16.50;99.90
44435;DHT22;30138;20.964;105.830;2024-01-30T18:21:57;16.50;99.90
44435;DHT22;30138;20.964;105.830;2024-01-30T18:27:04;16.50;99.90
44435;DHT22;30138;20.964;105.830;2024-01-30T18:32:13;16.50;99.90
44435;DHT22;30138;20.964;105.830;2024-01-30T18:37:21;16.50;99.90
44435;DHT22;30138;20.964;105.830;2024-01-30T18:42:28;16.50;99.90
44435;DHT22;30138;20.964;105.830;2024-01-30T18:47:36;16.50;99.90
44435;DHT22;30138;20.964;105.830;2024-01-30T18:52:43;16.50;99.90
44435;DHT22;30138;20.964;105.830;2024-01-30T18:57:50;16.50;99.90
44435;DHT22;30138;20.964;105.830;2024-01-30T19:02:58;16.50;99.90
44435;DHT22;30138;20.964;105.830;2024-01-30T19:08:05;16.50;99.90
44435;DHT22;30138;20.964;105.830;2024-01-30T19:13:11;16.50;99.90
44435;DHT22;30138;20.964;105.830;2024-01-30T19:18:20;16.50;99.90
44435;DHT22;30138;20.964;105.830;2024-01-30T19:23:27;16.50;99.90
44435;DHT22;30138;20.964;105.830;2024-01-30T19:28:34;16.50;99.90
44435;DHT22;30138;20.964;105.830;2024-01-30T19:33:43;16.50;99.90
44435;DHT22;30138;20.964;105.830;2024-01-30T19:38:51;16.50;99.90
44435;DHT22;30138;20.964;105.830;2024-01-30T19:43:57;16.50;99.90
44435;DHT22;30138;20.964;105.830;2024-01-30T19:49:06;16.50;99.90
44435;DHT22;30138;20.964;105.830;2024-01-30T19:54:12;16.50;99.90
44435;DHT22;30138;20.964;105.830;2024-01-30T19:59:21;16.50;99.90
44435;DHT22;30138;20.964;105.830;2024-01-30T20:04:29;16.50;99.90
44435;DHT22;30138;20.964;105.830;2024-01-30T20:09:36;16.50;99.90
44435;DHT22;30138;20.964;105.830;2024-01-30T20:14:43;16.50;99.90
44435;DHT22;30138;20.964;105.830;2024-01-30T20:19:52;16.50;99.90
44435;DHT22;30138;20.964;105.830;2024-01-30T20:25:00;16.50;99.90
44435;DHT22;30138;20.964;105.830;2024-01-30T20:30:08;16.60;99.90
44435;DHT22;30138;20.964;105.830;2024-01-30T20:35:17;16.50;99.90
44435;DHT22;30138;20.964;105.830;2024-01-30T20:40:24;16.60;99.90
44435;DHT22;30138;20.964;105.830;2024-01-30T20:45:31;16.50;99.90
44435;DHT22;30138;20.964;105.830;2024-01-30T20:50:40;16.60;99.90
44435;DHT22;30138;20.964;105.830;2024-01-30T20:55:47;16.50;99.90
44435;DHT22;30138;20.964;105.830;2024-01-30T21:00:54;16.50;99.90
44435;DHT22;30138;20.964;105.830;2024-01-30T21:06:04;16.60;99.90
44435;DHT22;30138;20.964;105.830;2024-01-30T21:11:11;16.60;99.90
44435;DHT22;30138;20.964;105.830;2024-01-30T21:16:21;16.60;99.90
44435;DHT22;30138;20.964;105.830;2024-01-30T21:21:29;16.60;99.90
44435;DHT22;30138;20.964;105.830;2024-01-30T21:26:37;16.60;99.90
44435;DHT22;30138;20.964;105.830;2024-01-30T21:31:45;16.60;99.90
44435;DHT22;30138;20.964;105.830;2024-01-30T21:36:54;16.60;99.90
44435;DHT22;30138;20.964;105.830;2024-01-30T21:42:01;16.60;99.90
44435;DHT22;30138;20.964;105.830;2024-01-30T21:47:07;16.60;99.90
44435;DHT22;30138;20.964;105.830;2024-01-30T21:52:16;16.60;99.90
44435;DHT22;30138;20.964;105.830;2024-01-30T21:57:23;16.60;99.90
44435;DHT22;30138;20.964;105.830;2024-01-30T22:02:30;16.60;99.90
44435;DHT22;30138;20.964;105.830;2024-01-30T22:07:39;16.60;99.90
44435;DHT22;30138;20.964;105.830;2024-01-30T22:12:47;16.60;99.90
44435;DHT22;30138;20.964;105.830;2024-01-30T22:17:53;16.60;99.90
44435;DHT22;30138;20.964;105.830;2024-01-30T22:23:02;16.60;99.90
44435;DHT22;30138;20.964;105.830;2024-01-30T22:28:08;16.60;99.90
44435;DHT22;30138;20.964;105.830;2024-01-30T22:33:15;16.60;99.90
44435;DHT22;30138;20.964;105.830;2024-01-30T22:38:23;16.60;99.90
44435;DHT22;30138;20.964;105.830;2024-01-30T22:43:31;16.60;99.90
44435;DHT22;30138;20.964;105.830;2024-01-30T22:48:37;16.60;99.90
44435;DHT22;30138;20.964;105.830;2024-01-30T22:53:48;16.60;99.90
44435;DHT22;30138;20.964;105.830;2024-01-30T22:58:54;16.60;99.90
44435;DHT22;30138;20.964;105.830;2024-01-30T23:04:02;16.60;99.90
44435;DHT22;30138;20.964;105.830;2024-01-30T23:09:10;16.60;99.90
44435;DHT22;30138;20.964;105.830;2024-01-30T23:14:19;16.60;99.90
44435;DHT22;30138;20.964;105.830;2024-01-30T23:19:26;16.60;99.90
44435;DHT22;30138;20.964;105.830;2024-01-30T23:24:36;16.60;99.90
44435;DHT22;30138;20.964;105.830;2024-01-30T23:29:42;16.60;99.90
44435;DHT22;30138;20.964;105.830;2024-01-30T23:34:50;16.60;99.90
44435;DHT22;30138;20.964;105.830;2024-01-30T23:39:59;16.60;99.90
44435;DHT22;30138;20.964;105.830;2024-01-30T23:45:06;16.60;99.90
44435;DHT22;30138;20.964;105.830;2024-01-30T23:50:13;16.60;99.90
44435;DHT22;30138;20.964;105.830;2024-01-30T23:55:22;16.60;99.90
